Time;durP1;ratioP1;P1;durP2;ratioP2;P2;SDS_P1;SDS_P2;PMS_P1;PMS_P2;Temp;Humidity;BMP_temperature;BMP_pressure;BME280_temperature;BME280_humidity;BME280_pressure;Samples;Min_cycle;Max_cycle;Signal;HPM_P1;HPM_P2
2023/10/17 00:02:26;;;;;;;13.65;7.70;;;;;;;6.41;100.00;101466.63;5040554;28;20041;-69
2023/10/17 00:04:52;;;;;;;13.45;7.85;;;;;;;6.38;100.00;101469.13;5053571;28;20033;-68
2023/10/17 00:07:17;;;;;;;9.88;7.15;;;;;;;6.33;100.00;101472.47;5061713;28;20541;-68
2023/10/17 00:09:42;;;;;;;13.63;8.18;;;;;;;6.29;100.00;101485.19;5064828;28;20036;-69
2023/10/17 00:14:57;;;;;;;12.70;7.80;;;;;;;6.20;100.00;101467.91;5060019;28;20508;-69
2023/10/17 00:17:23;;;;;;;12.10;7.20;;;;;;;6.15;100.00;101463.53;5057014;28;20045;-69
2023/10/17 00:19:51;;;;;;;15.07;8.15;;;;;;;6.09;100.00;101455.69;5056128;28;20051;-68
2023/10/17 00:22:23;;;;;;;14.65;7.85;;;;;;;6.08;100.00;101456.56;5053118;28;20094;-69
2023/10/17 00:24:54;;;;;;;14.65;7.60;;;;;;;6.03;100.00;101460.69;5053625;28;20055;-69
2023/10/17 00:27:19;;;;;;;11.80;7.18;;;;;;;6.01;100.00;101459.81;5056679;28;20171;-69
2023/10/17 00:29:45;;;;;;;11.38;7.70;;;;;;;5.97;100.00;101451.19;5057274;28;20029;-69
2023/10/17 00:32:12;;;;;;;12.45;8.10;;;;;;;5.98;100.00;101442.66;5052202;28;20260;-69
2023/10/17 00:34:38;;;;;;;13.13;7.85;;;;;;;5.93;100.00;101440.84;5054970;28;20031;-69
2023/10/17 00:37:10;;;;;;;12.10;8.00;;;;;;;5.94;100.00;101445.97;5056350;28;20037;-69
2023/10/17 00:39:39;;;;;;;13.05;7.57;;;;;;;5.95;100.00;101436.59;5052351;28;20075;-68
2023/10/17 00:44:39;;;;;;;13.73;7.82;;;;;;;6.00;100.00;101445.25;5052986;28;20025;-69
2023/10/17 00:47:08;;;;;;;13.95;7.75;;;;;;;6.01;100.00;101446.97;5056017;28;20067;-69
2023/10/17 00:49:42;;;;;;;11.95;7.50;;;;;;;6.05;100.00;101448.78;5059655;28;20045;-68
2023/10/17 00:52:18;;;;;;;12.37;6.90;;;;;;;6.01;100.00;101454.69;5056368;28;20033;-68
2023/10/17 00:54:45;;;;;;;11.93;6.63;;;;;;;5.98;100.00;101467.44;5057050;28;20411;-69
2023/10/17 00:57:13;;;;;;;11.52;7.55;;;;;;;5.97;100.00;101458.00;5051918;28;20025;-69
2023/10/17 00:59:44;;;;;;;10.57;7.22;;;;;;;5.95;100.00;101452.84;5059260;28;20024;-68
2023/10/17 01:02:15;;;;;;;11.57;6.65;;;;;;;5.92;100.00;101442.53;5051504;28;20220;-69
2023/10/17 01:04:44;;;;;;;12.80;6.88;;;;;;;5.88;100.00;101448.41;5052999;28;20040;-69
2023/10/17 01:07:11;;;;;;;13.32;7.25;;;;;;;5.85;100.00;101447.47;5060401;28;20963;-68
2023/10/17 01:09:37;;;;;;;11.13;6.55;;;;;;;5.83;100.00;101455.16;5058548;28;20059;-68
2023/10/17 01:12:09;;;;;;;16.05;7.03;;;;;;;5.84;100.00;101462.03;5060504;28;20020;-69
2023/10/17 01:14:35;;;;;;;7.43;5.82;;;;;;;5.84;100.00;101464.59;5062330;28;20036;-68
2023/10/17 01:17:05;;;;;;;11.60;6.90;;;;;;;5.86;100.00;101464.59;5057676;28;20137;-69
2023/10/17 01:19:32;;;;;;;9.60;6.45;;;;;;;5.87;100.00;101463.78;5042387;28;20033;-68
2023/10/17 01:21:58;;;;;;;11.45;6.22;;;;;;;5.88;100.00;101456.09;5060316;28;20040;-69
2023/10/17 01:24:25;;;;;;;11.15;5.97;;;;;;;5.90;100.00;101446.78;5059129;28;20518;-68
2023/10/17 01:26:51;;;;;;;10.40;6.32;;;;;;;5.92;100.00;101436.53;5051621;28;20395;-70
2023/10/17 01:29:18;;;;;;;10.85;6.53;;;;;;;5.92;100.00;101427.13;5052555;28;20040;-69
2023/10/17 01:31:44;;;;;;;10.35;6.75;;;;;;;5.95;100.00;101426.31;5062776;28;20108;-69
2023/10/17 01:34:11;;;;;;;11.48;6.78;;;;;;;5.98;100.00;101417.00;5056248;28;21469;-69
2023/10/17 01:36:40;;;;;;;13.10;6.90;;;;;;;5.98;100.00;101416.13;5052164;28;20048;-68
2023/10/17 01:39:09;;;;;;;10.07;6.40;;;;;;;5.98;100.00;101421.25;5060009;28;20034;-69
2023/10/17 01:41:35;;;;;;;11.02;6.82;;;;;;;6.01;100.00;101429.03;5050980;28;20037;-68
2023/10/17 01:44:01;;;;;;;9.48;6.10;;;;;;;6.03;100.00;101427.34;5055107;28;20044;-69
2023/10/17 01:46:30;;;;;;;8.88;5.78;;;;;;;6.07;100.00;101424.88;5060404;28;20032;-69
2023/10/17 01:49:10;;;;;;;11.48;6.60;;;;;;;6.08;100.00;101416.31;5061556;28;20043;-69
2023/10/17 01:51:35;;;;;;;9.45;5.95;;;;;;;6.08;100.00;101405.22;5056397;28;20037;-68
2023/10/17 01:54:07;;;;;;;12.23;6.45;;;;;;;6.07;100.00;101409.50;5049218;28;20569;-69
2023/10/17 01:56:32;;;;;;;11.98;6.25;;;;;;;6.09;100.00;101412.94;5051865;28;20040;-69
2023/10/17 01:59:04;;;;;;;12.15;6.38;;;;;;;6.13;100.00;101413.88;5057137;28;20028;-68
2023/10/17 02:01:29;;;;;;;11.20;6.22;;;;;;;6.13;100.00;101412.19;5061203;28;20032;-68
2023/10/17 02:04:03;;;;;;;10.20;5.47;;;;;;;6.14;100.00;101405.34;5055113;28;20048;-68
2023/10/17 02:06:30;;;;;;;10.05;6.00;;;;;;;6.14;100.00;101401.06;5062487;28;20107;-69
2023/10/17 02:08:58;;;;;;;10.40;5.97;;;;;;;6.15;100.00;101397.66;5062433;28;20032;-69
2023/10/17 02:11:24;;;;;;;9.35;5.75;;;;;;;6.18;100.00;101401.97;5068189;28;20039;-69
2023/10/17 02:13:52;;;;;;;9.60;6.40;;;;;;;6.18;100.00;101396.84;5058963;28;20036;-69
2023/10/17 02:16:17;;;;;;;11.82;6.88;;;;;;;6.19;100.00;101396.91;5058579;28;20040;-68
2023/10/17 02:18:44;;;;;;;9.77;6.15;;;;;;;6.17;100.00;101397.72;5041854;28;20033;-69
2023/10/17 02:21:12;;;;;;;8.98;5.47;;;;;;;6.18;100.00;101396.84;5052465;28;20139;-64
2023/10/17 02:23:48;;;;;;;10.68;6.05;;;;;;;6.18;100.00;101408.00;5054984;28;20111;-64
2023/10/17 02:26:14;;;;;;;10.75;6.03;;;;;;;6.19;100.00;101404.59;5059106;28;20032;-69
2023/10/17 02:28:49;;;;;;;15.43;5.90;;;;;;;6.17;100.00;101400.28;5061072;28;20538;-68
2023/10/17 02:31:15;;;;;;;7.60;5.05;;;;;;;6.15;100.00;101386.53;5060558;28;20039;-68
2023/10/17 02:33:43;;;;;;;9.00;5.80;;;;;;;6.12;100.00;101383.91;5049255;28;20091;-69
2023/10/17 02:36:16;;;;;;;8.32;5.63;;;;;;;6.11;100.00;101392.44;5057520;28;21897;-68
2023/10/17 02:38:43;;;;;;;7.80;5.63;;;;;;;6.11;100.00;101397.59;5049155;28;20646;-69
2023/10/17 02:41:19;;;;;;;10.10;5.65;;;;;;;6.10;100.00;101401.84;5060347;28;20029;-68
2023/10/17 02:43:52;;;;;;;10.20;6.25;;;;;;;6.10;100.00;101401.84;5060777;28;20163;-68
2023/10/17 02:46:18;;;;;;;10.18;5.68;;;;;;;6.10;100.00;101399.28;5056167;28;20032;-68
2023/10/17 02:48:45;;;;;;;12.30;6.15;;;;;;;6.08;100.00;101397.53;5060958;28;20032;-68
2023/10/17 02:51:18;;;;;;;11.65;6.00;;;;;;;6.07;100.00;101388.94;5064373;28;20155;-69
2023/10/17 02:53:43;;;;;;;9.25;5.45;;;;;;;6.08;100.00;101374.44;5060976;28;20027;-69
2023/10/17 02:56:18;;;;;;;12.75;6.35;;;;;;;6.06;100.00;101383.78;5071391;28;20642;-69
2023/10/17 02:59:04;;;;;;;10.05;6.15;;;;;;;6.05;100.00;101382.06;5061263;28;20505;-68
2023/10/17 03:01:31;;;;;;;12.13;6.50;;;;;;;6.05;100.00;101389.75;5058171;28;20036;-69
2023/10/17 03:04:02;;;;;;;10.73;5.75;;;;;;;6.08;100.00;101390.66;5058608;28;20036;-69
2023/10/17 03:06:31;;;;;;;11.80;5.32;;;;;;;6.06;100.00;101384.66;5062715;28;20051;-69
2023/10/17 03:09:15;;;;;;;8.43;5.60;;;;;;;6.07;100.00;101385.53;5058888;28;20033;-69
2023/10/17 03:11:47;;;;;;;10.18;5.75;;;;;;;6.08;100.00;101382.13;5057497;28;20037;-69
2023/10/17 03:14:19;;;;;;;10.73;5.65;;;;;;;6.08;100.00;101382.13;5053668;28;20040;-69
2023/10/17 03:16:54;;;;;;;10.30;5.95;;;;;;;6.06;100.00;101379.50;5053180;28;20044;-69
2023/10/17 03:19:25;;;;;;;;;;;;;;;6.06;100.00;101381.22;5055273;28;20049;-69
2023/10/17 03:21:54;;;;;;;10.23;4.97;;;;;;;6.06;100.00;101389.78;5055886;28;19924;-70
2023/10/17 03:24:28;;;;;;;14.13;6.25;;;;;;;6.06;100.00;101392.34;5054701;28;20483;-69
2023/10/17 03:26:55;;;;;;;9.07;5.55;;;;;;;6.06;100.00;101391.47;5050029;28;20481;-69
2023/10/17 03:29:23;;;;;;;7.97;5.65;;;;;;;6.06;100.00;101389.78;5057377;28;20054;-69
2023/10/17 03:32:03;;;;;;;8.35;5.47;;;;;;;6.09;100.00;101392.41;5054264;28;20056;-69
2023/10/17 03:34:34;;;;;;;10.55;5.63;;;;;;;6.07;100.00;101391.53;5047737;28;20041;-69
2023/10/17 03:37:26;;;;;;;9.60;6.20;;;;;;;6.07;100.00;101383.81;5053254;28;20040;-69
2023/10/17 03:39:53;;;;;;;10.23;5.47;;;;;;;6.08;100.00;101387.25;5056035;28;20064;-69
2023/10/17 03:42:31;;;;;;;6.35;5.05;;;;;;;6.09;100.00;101383.84;5058664;28;20067;-69
2023/10/17 03:44:58;;;;;;;8.52;5.38;;;;;;;6.10;100.00;101378.75;5053206;28;20032;-69
2023/10/17 03:47:23;;;;;;;8.52;5.30;;;;;;;6.12;100.00;101374.50;5057159;28;20127;-69
2023/10/17 03:49:48;;;;;;;8.32;5.10;;;;;;;6.13;100.00;101378.81;5055240;28;20079;-69
2023/10/17 03:52:16;;;;;;;9.82;5.32;;;;;;;6.15;100.00;101368.56;5057795;28;20037;-69
2023/10/17 03:54:44;;;;;;;7.90;5.20;;;;;;;6.14;100.00;101377.13;5057295;28;20487;-69
2023/10/17 03:57:16;;;;;;;9.90;5.88;;;;;;;6.16;100.00;101378.88;5058329;28;20685;-66
2023/10/17 03:59:42;;;;;;;10.27;5.60;;;;;;;6.20;100.00;101384.94;5055830;28;20032;-69
2023/10/17 04:02:17;;;;;;;11.13;6.20;;;;;;;6.20;100.00;101385.78;5036339;28;20043;-69
2023/10/17 04:04:55;;;;;;;7.82;5.30;;;;;;;6.21;100.00;101379.81;5056745;28;20044;-69
2023/10/17 04:07:29;;;;;;;8.65;5.63;;;;;;;6.25;100.00;101385.88;5059017;28;20041;-69
2023/10/17 04:12:39;;;;;;;10.23;6.22;;;;;;;6.25;100.00;101391.88;5041811;28;20513;-69
2023/10/17 04:15:09;;;;;;;8.10;5.70;;;;;;;6.25;100.00;101394.44;5072633;28;20024;-69
2023/10/17 04:17:36;;;;;;;7.43;5.45;;;;;;;6.25;100.00;101391.00;5074030;28;20060;-70
2023/10/17 04:20:11;;;;;;;8.98;5.38;;;;;;;6.26;100.00;101391.03;5060220;28;20045;-70
2023/10/17 04:22:43;;;;;;;9.25;5.25;;;;;;;6.26;100.00;101385.88;5063764;28;20439;-69
2023/10/17 04:27:58;;;;;;;9.87;5.33;;;;;;;6.20;100.00;101390.06;5063818;28;20040;-64
2023/10/17 04:30:34;;;;;;;7.35;4.75;;;;;;;6.16;100.00;101383.13;5056838;28;20082;-64
2023/10/17 04:33:09;;;;;;;7.13;4.72;;;;;;;6.12;100.00;101377.06;5063512;28;20037;-64
2023/10/17 04:35:46;;;;;;;6.32;4.75;;;;;;;6.08;100.00;101374.44;5054477;28;20044;-64
2023/10/17 04:43:56;;;;;;;10.20;5.88;;;;;;;6.15;100.00;101364.28;5036393;28;20519;-64
2023/10/17 04:46:29;;;;;;;7.68;5.75;;;;;;;6.17;100.00;101360.03;5043578;28;20394;-65
2023/10/17 04:49:04;;;;;;;9.95;5.22;;;;;;;6.19;100.00;101348.13;5002590;28;20033;-64
2023/10/17 04:51:38;;;;;;;10.60;6.30;;;;;;;6.23;100.00;101356.72;5037775;28;20119;-64
2023/10/17 04:54:20;;;;;;;10.27;5.28;;;;;;;6.25;100.00;101367.91;5038377;28;20039;-65
2023/10/17 04:57:00;;;;;;;13.15;5.57;;;;;;;6.27;100.00;101359.38;5060587;28;20062;-65
2023/10/17 05:00:25;;;;;;;10.55;5.78;;;;;;;6.29;100.00;101362.84;5063873;28;20043;-64
2023/10/17 06:16:51;;;;;;;9.20;5.35;;;;;;;6.51;100.00;101383.78;5059791;28;20090;-68
2023/10/17 06:19:21;;;;;;;7.90;4.80;;;;;;;6.52;100.00;101388.09;5051904;28;20072;-68
2023/10/17 06:26:59;;;;;;;9.15;5.80;;;;;;;6.59;100.00;101380.50;5050768;28;20040;-68
2023/10/17 06:34:22;;;;;;;12.60;5.70;;;;;;;6.67;100.00;101396.94;5053374;28;20044;-68
2023/10/17 06:37:01;;;;;;;12.50;6.07;;;;;;;6.70;100.00;101402.13;5051380;28;20967;-68
2023/10/17 06:39:37;;;;;;;11.30;5.50;;;;;;;6.77;100.00;101406.50;5037228;28;20036;-68
2023/10/17 06:42:15;;;;;;;8.52;5.80;;;;;;;6.78;100.00;101405.69;5054743;28;20039;-68
2023/10/17 06:44:52;;;;;;;11.82;6.20;;;;;;;6.81;100.00;101404.88;5054362;28;20157;-68
2023/10/17 06:47:21;;;;;;;13.77;6.07;;;;;;;6.87;100.00;101408.41;5052377;28;20456;-68
2023/10/17 06:50:16;;;;;;;16.63;6.47;;;;;;;6.93;100.00;101414.47;5055176;28;20134;-68
2023/10/17 06:55:38;;;;;;;12.60;5.97;;;;;;;7.04;100.00;101416.38;5049970;28;20540;-68
2023/10/17 06:58:14;;;;;;;10.15;5.20;;;;;;;7.10;100.00;101415.59;5050651;28;20529;-68
2023/10/17 07:00:52;;;;;;;8.30;5.13;;;;;;;7.14;100.00;101420.84;5036337;28;20044;-67
2023/10/17 07:03:24;;;;;;;11.60;4.88;;;;;;;7.16;100.00;101414.03;5055689;28;20107;-68
2023/10/17 07:05:51;;;;;;;16.98;5.70;;;;;;;7.22;100.00;101414.13;5059749;28;20028;-69
2023/10/17 07:08:19;;;;;;;7.45;5.10;;;;;;;7.26;100.00;101412.50;5045016;28;20714;-68
2023/10/17 07:13:54;;;;;;;13.82;5.55;;;;;;;7.28;99.90;101403.09;5055172;28;20063;-68
2023/10/17 07:16:42;;;;;;;11.93;5.35;;;;;;;7.32;99.21;101398.03;5057997;28;20082;-68
2023/10/17 07:22:05;;;;;;;14.13;6.68;;;;;;;7.41;99.30;101384.44;5075400;28;20044;-68
2023/10/17 07:24:43;;;;;;;20.02;9.63;;;;;;;7.48;99.62;101391.38;5080745;28;20027;-68
2023/10/17 07:27:12;;;;;;;16.20;9.25;;;;;;;7.57;99.03;101388.06;5060640;28;20998;-68
2023/10/17 07:29:38;;;;;;;15.88;6.65;;;;;;;7.64;98.63;101392.44;5059904;28;20507;-68
2023/10/17 07:32:15;;;;;;;11.93;6.43;;;;;;;7.69;98.41;101390.78;5033267;28;20040;-68
2023/10/17 07:34:43;;;;;;;11.10;5.50;;;;;;;7.78;97.62;101393.50;5053536;28;20033;-68
2023/10/17 07:39:37;;;;;;;17.48;8.27;;;;;;;7.85;97.21;101398.75;5057098;28;20068;-68
2023/10/17 07:42:04;;;;;;;14.88;6.45;;;;;;;7.95;97.25;101398.00;5055697;28;20131;-69
2023/10/17 07:44:34;;;;;;;12.73;6.32;;;;;;;8.05;97.85;101398.13;5056688;28;20599;-68
2023/10/17 07:49:35;;;;;;;12.02;5.63;;;;;;;8.18;96.71;101397.44;5047704;28;20056;-68
2023/10/17 07:52:03;;;;;;;9.75;5.50;;;;;;;8.12;95.67;101393.06;5053236;28;20058;-68
2023/10/17 07:54:29;;;;;;;10.60;5.32;;;;;;;8.23;95.69;101386.31;5057697;28;20641;-68
2023/10/17 07:56:59;;;;;;;12.10;5.93;;;;;;;8.28;96.03;101379.50;5057135;28;20020;-68
2023/10/17 07:59:30;;;;;;;9.25;5.65;;;;;;;8.25;94.92;101381.22;5040155;28;20079;-68
2023/10/17 08:02:00;;;;;;;10.10;5.70;;;;;;;8.29;94.59;101377.78;5058804;28;20131;-68
2023/10/17 08:04:31;;;;;;;10.32;6.13;;;;;;;8.32;94.45;101373.53;5055049;28;20098;-68
2023/10/17 08:06:56;;;;;;;9.48;5.68;;;;;;;8.44;94.37;101383.09;5058362;28;20054;-68
2023/10/17 08:11:52;;;;;;;8.30;5.32;;;;;;;8.65;94.03;101383.31;5058904;28;20024;-69
2023/10/17 08:14:40;;;;;;;7.95;5.00;;;;;;;8.72;93.55;101379.97;5058765;28;20103;-68
2023/10/17 08:17:08;;;;;;;7.22;4.93;;;;;;;8.79;92.28;101375.69;5057377;28;20044;-68
2023/10/17 08:22:18;;;;;;;9.38;4.47;;;;;;;8.82;91.08;101357.69;5057316;28;20697;-68
2023/10/17 08:24:51;;;;;;;8.65;4.60;;;;;;;8.80;90.40;101355.09;5054610;28;20041;-69
2023/10/17 08:29:49;;;;;;;7.20;4.00;;;;;;;9.01;90.05;101346.66;5057003;28;20658;-69
2023/10/17 08:34:48;;;;;;;9.65;4.43;;;;;;;9.06;87.68;101332.09;5055559;28;20040;-69
2023/10/17 08:37:26;;;;;;;8.38;3.95;;;;;;;9.20;87.22;101334.78;5061502;28;20037;-69
2023/10/17 08:39:51;;;;;;;7.65;4.28;;;;;;;9.23;87.05;101335.63;5058103;28;20039;-68
2023/10/17 08:44:55;;;;;;;8.85;3.80;;;;;;;9.43;88.16;101340.94;5048711;28;20059;-68
2023/10/17 08:47:25;;;;;;;5.95;4.05;;;;;;;9.48;86.31;101337.50;5054774;28;20068;-69
2023/10/17 08:49:52;;;;;;;4.97;3.42;;;;;;;9.58;84.31;101325.56;5053655;28;20080;-69
2023/10/17 08:52:28;;;;;;;5.93;3.42;;;;;;;9.68;84.04;101324.72;5056518;28;20043;-68
2023/10/17 08:54:56;;;;;;;4.88;3.30;;;;;;;9.77;84.67;101323.88;5059418;28;20252;-68
2023/10/17 08:57:22;;;;;;;5.25;3.15;;;;;;;9.74;83.65;101306.69;5056120;28;20086;-68
2023/10/17 09:02:29;;;;;;;7.20;3.40;;;;;;;9.82;81.89;101299.84;5058014;28;20554;-69
2023/10/17 09:05:18;;;;;;;4.32;2.97;;;;;;;9.82;81.40;101291.22;5034748;28;20076;-69
2023/10/17 09:07:48;;;;;;;8.95;3.55;;;;;;;9.75;81.08;101303.25;5061846;28;20044;-68
2023/10/17 09:10:20;;;;;;;7.22;2.63;;;;;;;9.92;81.15;101322.22;5063002;28;20763;-68
2023/10/17 09:13:40;;;;;;;7.50;3.55;;;;;;;9.98;80.10;101304.16;5057551;28;20040;-68
2023/10/17 09:16:10;;;;;;;8.90;3.58;;;;;;;10.03;79.53;101301.63;5048791;28;20036;-69
2023/10/17 09:18:42;;;;;;;6.47;3.60;;;;;;;10.21;81.10;101322.28;5055241;28;20504;-68
2023/10/17 09:21:08;;;;;;;5.05;3.13;;;;;;;10.32;79.62;101299.06;5059348;28;20040;-69
2023/10/17 09:23:36;;;;;;;8.02;2.70;;;;;;;10.31;79.04;101305.09;5056748;28;20048;-68
2023/10/17 09:26:07;;;;;;;4.60;2.30;;;;;;;10.44;79.00;101292.22;5053839;28;20037;-69
2023/10/17 09:28:41;;;;;;;4.80;2.30;;;;;;;10.36;77.04;101264.59;5060353;28;20063;-68
2023/10/17 09:31:09;;;;;;;3.08;2.38;;;;;;;10.37;78.02;101280.13;5056286;28;20372;-68
2023/10/17 09:33:36;;;;;;;6.15;2.60;;;;;;;10.54;77.68;101275.81;5057426;28;20037;-68
2023/10/17 09:36:04;;;;;;;8.05;3.63;;;;;;;10.62;77.86;101274.09;5050403;28;20067;-69
2023/10/17 09:38:45;;;;;;;5.00;2.97;;;;;;;10.59;77.33;101252.56;5058158;28;20235;-68
2023/10/17 09:41:17;;;;;;;7.60;3.10;;;;;;;10.66;76.93;101239.63;5057026;28;20113;-68
2023/10/17 09:43:45;;;;;;;9.70;2.90;;;;;;;10.75;76.39;101237.03;5054603;28;20102;-69
2023/10/17 09:46:14;;;;;;;10.73;2.70;;;;;;;10.73;76.10;101232.72;5056501;28;20044;-69
2023/10/17 09:48:41;;;;;;;6.57;2.25;;;;;;;10.79;73.89;101214.63;5051252;28;20114;-69
2023/10/17 09:51:10;;;;;;;5.82;2.80;;;;;;;10.70;74.09;101219.81;5036464;28;20036;-69
2023/10/17 09:53:38;;;;;;;7.63;2.72;;;;;;;10.73;74.81;101227.56;5054058;28;20110;-68
2023/10/17 09:56:08;;;;;;;3.88;2.40;;;;;;;10.77;73.50;101206.84;5052021;28;20051;-69
2023/10/17 09:58:38;;;;;;;8.98;2.42;;;;;;;11.02;73.83;101211.97;5054267;28;20124;-68
2023/10/17 10:01:14;;;;;;;2.75;2.22;;;;;;;11.12;74.65;101231.78;5056183;28;20381;-69
2023/10/17 10:03:41;;;;;;;6.65;3.17;;;;;;;11.09;73.43;101203.31;5044173;28;20529;-69
2023/10/17 10:06:19;;;;;;;5.55;2.50;;;;;;;10.85;72.71;101193.91;5058467;28;20542;-68
2023/10/17 10:08:44;;;;;;;4.15;2.08;;;;;;;10.80;73.52;101218.94;5053925;28;20072;-69
2023/10/17 10:11:11;;;;;;;3.70;2.20;;;;;;;10.85;73.79;101217.19;5055666;28;20044;-69
2023/10/17 10:14:04;;;;;;;5.28;2.30;;;;;;;10.87;73.67;101202.53;5058637;28;20052;-69
2023/10/17 10:16:53;;;;;;;5.00;2.08;;;;;;;10.84;74.66;101228.38;5048870;28;20045;-69
2023/10/17 10:19:20;;;;;;;2.78;1.90;;;;;;;10.89;74.95;101230.97;5053664;28;20574;-69
2023/10/17 10:21:59;;;;;;;5.80;2.67;;;;;;;10.80;74.97;101234.44;5057012;28;20054;-69
2023/10/17 10:24:29;;;;;;;5.05;2.13;;;;;;;10.61;73.42;101206.88;5051974;28;20047;-69
2023/10/17 10:27:10;;;;;;;4.30;2.63;;;;;;;10.58;73.43;101225.84;5057032;28;20039;-69
2023/10/17 10:29:36;;;;;;;4.50;2.35;;;;;;;10.58;75.18;101256.88;5054597;28;20051;-69
2023/10/17 10:32:05;;;;;;;6.57;1.95;;;;;;;10.52;74.92;101241.38;5053393;28;20040;-69
2023/10/17 10:34:41;;;;;;;5.50;2.03;;;;;;;10.45;73.43;101216.38;5034354;28;20036;-69
2023/10/17 10:37:08;;;;;;;6.28;2.20;;;;;;;10.39;74.19;101224.13;5058319;28;20391;-69
2023/10/17 10:39:35;;;;;;;3.08;1.73;;;;;;;10.34;73.62;101212.94;5053465;28;20052;-68
2023/10/17 10:42:06;;;;;;;8.35;1.73;;;;;;;10.31;72.74;101207.78;5053614;28;20610;-68
2023/10/17 10:44:41;;;;;;;3.03;1.90;;;;;;;10.38;73.67;101216.41;5034496;28;20049;-68
2023/10/17 10:47:07;;;;;;;5.45;1.98;;;;;;;10.52;73.56;101210.34;5052482;28;20660;-68
2023/10/17 10:49:33;;;;;;;4.07;2.00;;;;;;;10.76;72.98;101193.94;5054538;28;20044;-68
2023/10/17 10:51:58;;;;;;;5.35;2.10;;;;;;;10.97;72.66;101170.59;5050608;28;20130;-69
2023/10/17 10:54:54;;;;;;;8.70;2.00;;;;;;;11.19;70.88;101146.34;5057383;28;20785;-68
2023/10/17 10:57:28;;;;;;;4.88;2.05;;;;;;;11.34;70.48;101130.75;5046236;28;20044;-67
2023/10/17 10:59:53;;;;;;;3.20;1.77;;;;;;;11.40;70.27;101137.59;5031293;28;20031;-68
2023/10/17 11:02:20;;;;;;;6.30;2.15;;;;;;;11.51;68.05;101089.28;5036239;28;20041;-69
2023/10/17 11:04:47;;;;;;;3.50;1.90;;;;;;;11.56;68.83;101091.81;5060063;28;20036;-68
2023/10/17 11:07:23;;;;;;;3.38;1.85;;;;;;;11.58;67.77;101070.22;5048467;28;20082;-61
2023/10/17 11:10:10;;;;;;;3.25;1.98;;;;;;;11.67;68.19;101088.28;5054794;28;20685;-61
2023/10/17 11:12:37;;;;;;;4.50;2.00;;;;;;;11.78;68.83;101093.38;5057147;28;20582;-61
2023/10/17 11:15:18;;;;;;;3.58;1.98;;;;;;;11.85;68.10;101084.69;5052148;28;20395;-61
2023/10/17 11:17:45;;;;;;;5.88;2.30;;;;;;;11.90;68.18;101078.56;5053900;28;20736;-61
2023/10/17 11:20:18;;;;;;;5.55;2.20;;;;;;;11.95;68.14;101081.16;5056076;28;20451;-61
2023/10/17 11:22:49;;;;;;;3.20;1.90;;;;;;;11.96;66.75;101058.69;5053341;28;20033;-68
2023/10/17 11:25:36;;;;;;;6.22;2.38;;;;;;;12.00;68.83;101092.31;5046869;28;20423;-68
2023/10/17 11:28:06;;;;;;;4.03;2.00;;;;;;;11.94;66.76;101061.28;5051321;28;20040;-68
2023/10/17 11:30:40;;;;;;;3.33;1.70;;;;;;;11.94;66.74;101068.19;5053319;28;20044;-69
2023/10/17 11:36:12;;;;;;;3.63;1.92;;;;;;;12.14;67.59;101081.84;4992298;28;20060;-63
2023/10/17 11:38:38;;;;;;;3.92;2.10;;;;;;;12.27;67.33;101071.31;5049666;28;21053;-63
2023/10/17 11:41:05;;;;;;;4.97;2.05;;;;;;;12.24;65.10;101039.38;5052940;28;20047;-63
2023/10/17 11:43:42;;;;;;;8.95;1.95;;;;;;;12.29;65.66;101043.66;5051729;28;20044;-63
2023/10/17 11:46:18;;;;;;;2.83;1.83;;;;;;;12.46;66.07;101048.66;5049201;28;20040;-62
2023/10/17 11:48:48;;;;;;;4.22;2.03;;;;;;;12.60;65.15;101041.56;5050889;28;20071;-63
2023/10/17 11:51:17;;;;;;;3.97;1.73;;;;;;;12.60;64.84;101040.69;5050497;28;20032;-63
2023/10/17 11:54:09;;;;;;;3.22;1.60;;;;;;;12.55;64.43;101027.81;5049989;28;20098;-62
2023/10/17 11:56:39;;;;;;;7.28;2.33;;;;;;;12.56;64.12;101021.72;5049350;28;20119;-63
2023/10/17 11:59:09;;;;;;;4.53;2.33;;;;;;;12.52;63.78;101019.19;5051736;28;20050;-62
2023/10/17 12:01:34;;;;;;;9.02;1.92;;;;;;;12.52;63.48;101014.88;5054254;28;20033;-62
2023/10/17 12:04:05;;;;;;;4.15;1.73;;;;;;;12.56;62.60;100995.78;5049988;28;20072;-62
2023/10/17 12:06:30;;;;;;;6.40;1.73;;;;;;;12.46;63.76;101015.78;5049908;28;20044;-62
2023/10/17 12:08:56;;;;;;;3.40;1.67;;;;;;;12.71;64.74;101038.81;5057196;28;21646;-62
2023/10/17 12:11:24;;;;;;;3.08;2.08;;;;;;;12.79;63.24;101006.72;5052732;28;20954;-62
2023/10/17 12:14:42;;;;;;;5.10;2.15;;;;;;;12.78;62.87;100996.38;5051567;28;20036;-63
2023/10/17 12:17:10;;;;;;;3.72;1.63;;;;;;;12.87;63.81;101007.50;5054761;28;20059;-63
2023/10/17 12:19:36;;;;;;;4.13;2.08;;;;;;;12.88;62.63;100979.81;5038506;28;20064;-63
2023/10/17 12:22:04;;;;;;;8.98;1.90;;;;;;;12.96;61.08;100952.88;5052913;28;20152;-63
2023/10/17 12:24:34;;;;;;;2.67;1.70;;;;;;;13.03;61.08;100952.81;5051608;28;20037;-68
2023/10/17 12:27:00;;;;;;;4.65;1.88;;;;;;;13.01;60.97;100958.03;5051716;28;20116;-68
2023/10/17 12:29:29;;;;;;;4.78;1.95;;;;;;;12.97;60.25;100943.34;5052666;28;20047;-68
2023/10/17 12:32:01;;;;;;;3.17;1.42;;;;;;;13.03;60.35;100943.28;5056668;28;20040;-67
2023/10/17 12:34:29;;;;;;;6.55;2.38;;;;;;;13.14;60.32;100943.97;5051429;28;20045;-68
2023/10/17 12:36:55;;;;;;;2.50;1.60;;;;;;;13.20;59.58;100925.72;5053534;28;20095;-68
2023/10/17 12:39:21;;;;;;;2.55;1.40;;;;;;;13.36;61.08;100954.84;5056828;28;20809;-67
2023/10/17 12:41:56;;;;;;;3.70;1.67;;;;;;;13.32;59.62;100917.72;5058188;28;20024;-63
2023/10/17 12:44:21;;;;;;;;;;;;;;;13.38;60.13;100927.16;5061219;28;20032;-64
2023/10/17 12:46:47;;;;;;;3.35;1.30;;;;;;;13.37;58.09;100886.47;5051813;28;19960;-62
2023/10/17 12:49:12;;;;;;;3.95;1.70;;;;;;;13.37;57.50;100886.47;5055442;28;20450;-62
2023/10/17 12:51:38;;;;;;;4.55;1.73;;;;;;;13.40;57.05;100876.03;5063490;28;20039;-63
2023/10/17 12:54:04;;;;;;;3.58;1.70;;;;;;;13.50;57.18;100882.78;5058242;28;20100;-63
2023/10/17 12:56:29;;;;;;;2.80;1.77;;;;;;;13.60;57.01;100878.25;5034601;28;20036;-63
2023/10/17 12:58:55;;;;;;;2.63;1.65;;;;;;;13.69;56.66;100875.47;5051201;28;20036;-62
2023/10/17 13:01:25;;;;;;;4.60;1.60;;;;;;;13.76;56.54;100871.88;5054090;28;20049;-62
2023/10/17 13:03:57;;;;;;;2.30;1.40;;;;;;;13.94;56.56;100866.34;5048566;28;20045;-63
2023/10/17 13:06:25;;;;;;;2.88;1.45;;;;;;;14.13;55.43;100840.81;5055788;28;20025;-62
2023/10/17 13:08:56;;;;;;;3.80;1.40;;;;;;;14.33;54.65;100828.22;5054625;28;20021;-63
2023/10/17 13:11:22;;;;;;;4.75;1.60;;;;;;;14.19;53.14;100799.09;5055373;28;20036;-63
2023/10/17 13:13:48;;;;;;;3.97;1.35;;;;;;;14.27;53.99;100825.75;5057058;28;20616;-62
2023/10/17 13:16:13;;;;;;;3.58;1.00;;;;;;;14.24;54.39;100844.03;5050242;28;20048;-63
2023/10/17 13:18:40;;;;;;;3.15;1.50;;;;;;;14.23;53.40;100822.38;5049626;28;20045;-62
2023/10/17 13:21:15;;;;;;;2.78;1.20;;;;;;;14.23;54.95;100847.50;5054271;28;20124;-63
2023/10/17 13:23:42;;;;;;;2.80;1.67;;;;;;;14.15;54.39;100818.22;5053172;28;20048;-62
2023/10/17 13:26:15;;;;;;;2.05;1.45;;;;;;;14.06;54.38;100827.09;5062593;28;20093;-62
2023/10/17 13:28:40;;;;;;;2.92;1.20;;;;;;;14.05;54.11;100822.78;5062050;28;20119;-62
2023/10/17 13:31:10;;;;;;;2.90;1.45;;;;;;;14.10;54.38;100816.56;5058008;28;20048;-63
2023/10/17 13:33:36;;;;;;;2.17;1.30;;;;;;;14.02;53.20;100789.91;5035865;28;20047;-62
2023/10/17 13:36:02;;;;;;;4.13;1.67;;;;;;;14.00;54.55;100812.50;5047458;28;20704;-62
2023/10/17 13:38:27;;;;;;;2.22;1.38;;;;;;;14.04;55.01;100824.50;5056754;28;20036;-62
2023/10/17 13:41:02;;;;;;;2.53;1.20;;;;;;;14.09;55.53;100840.03;5055818;28;20060;-62
2023/10/17 13:43:27;;;;;;;5.07;1.67;;;;;;;14.16;54.96;100817.34;5053336;28;20160;-62
2023/10/17 13:45:52;;;;;;;4.20;1.27;;;;;;;14.13;54.54;100815.66;5054957;28;20534;-62
2023/10/17 13:48:18;;;;;;;3.63;0.90;;;;;;;14.05;54.66;100808.03;5050626;28;20747;-62
2023/10/17 13:50:43;;;;;;;4.57;1.95;;;;;;;14.10;55.06;100813.13;5057710;28;20028;-62
2023/10/17 13:53:14;;;;;;;3.20;1.95;;;;;;;14.13;55.69;100825.22;5031295;28;20664;-62
2023/10/17 13:55:41;;;;;;;3.33;1.30;;;;;;;14.18;55.26;100821.63;5053944;28;20037;-62